EGFF

Cardiff International Airport

Cardiff, United Kingdom
METAR EGFF 211520Z AUTO 10009KT 9999 NCD 21/15 Q1015
Observed Flight Rules
Apr-21 @ 15:20 UTC (20 minutes ago) Visual Flight Rules
Wind Visibility Clouds
100° at 9 knots 10,000+ meters
  • Clear skies
Temperatures Readings
Current 21°C / 70°F
Dewpoint 15°C / 59°F
Humidity 69%
Altimeter 29.97" Hg
Pressure 1015 hPa
Elevation 67
METAR EGFF 211520Z AUTO 10009KT 9999 NCD 21/15 Q1015
Observed Flight Rules
Apr-21 @ 15:20 UTC
(20 minutes ago)
VFR
Wind Visibility
100° at 9 knots 10,000+ meters
Clouds
  • Clear skies
Temperature Dewpoint
21°C / 70°F 15°C / 59°F
Humidity Altimeter Pressure
69% 29.97" Hg 1015 hPa